Time;durP1;ratioP1;P1;durP2;ratioP2;P2;SDS_P1;SDS_P2;PMS_P1;PMS_P2;Temp;Humidity;BMP_temperature;BMP_pressure;BME280_temperature;BME280_humidity;BME280_pressure;Samples;Min_cycle;Max_cycle;Signal;HPM_P1;HPM_P2
2022/12/06 00:01:43;;;;;;;19.47;10.07;;;;;;;-145.18;100.00;46697.50;5032249;28;20429;-74
2022/12/06 00:04:15;;;;;;;20.73;9.40;;;;;;;-145.18;100.00;46695.56;5032459;28;20186;-74
2022/12/06 00:06:46;;;;;;;16.17;7.70;;;;;;;-145.18;100.00;46691.66;5032123;28;20297;-74
2022/12/06 00:09:28;;;;;;;19.20;8.83;;;;;;;-145.18;100.00;46693.59;5032460;28;20278;-74
2022/12/06 00:11:54;;;;;;;16.47;8.77;;;;;;;-145.18;100.00;46705.31;5031805;28;20371;-74
2022/12/06 00:14:21;;;;;;;16.37;7.97;;;;;;;-145.18;100.00;46697.50;5032397;28;20738;-74
2022/12/06 00:16:47;;;;;;;18.17;7.97;;;;;;;-145.18;100.00;46693.59;5031633;28;20262;-74
2022/12/06 00:19:15;;;;;;;21.03;9.33;;;;;;;-145.18;100.00;46693.59;5032307;28;20294;-74
2022/12/06 00:21:41;;;;;;;20.17;7.97;;;;;;;-145.18;100.00;46689.69;5031774;28;20482;-74
2022/12/06 00:24:15;;;;;;;18.03;8.77;;;;;;;-145.18;100.00;46713.13;5032067;28;20302;-74
2022/12/06 00:26:43;;;;;;;16.60;8.37;;;;;;;-145.18;100.00;46693.59;5031944;28;20649;-75
2022/12/06 00:29:18;;;;;;;21.17;9.33;;;;;;;-145.18;100.00;46705.31;5031991;28;20350;-74
2022/12/06 00:31:44;;;;;;;18.87;8.30;;;;;;;-145.18;100.00;46709.22;5031625;28;20299;-74
2022/12/06 00:34:09;;;;;;;15.23;7.80;;;;;;;-145.18;100.00;46699.47;5031973;28;20337;-74
2022/12/06 00:36:38;;;;;;;16.20;8.57;;;;;;;-145.18;100.00;46691.66;5031655;28;20040;-74
2022/12/06 00:39:14;;;;;;;18.53;8.67;;;;;;;-145.18;100.00;46699.47;5031749;28;20378;-74
2022/12/06 00:41:39;;;;;;;15.35;8.45;;;;;;;-145.18;100.00;46693.59;5031606;28;20262;-74
2022/12/06 00:44:05;;;;;;;19.17;8.13;;;;;;;-145.18;100.00;46701.41;5031416;28;20041;-74
2022/12/06 00:46:32;;;;;;;17.90;7.63;;;;;;;-145.18;100.00;46693.59;5031569;28;20033;-74
2022/12/06 00:48:59;;;;;;;15.80;7.70;;;;;;;-145.18;100.00;46701.41;5031404;28;20394;-74
2022/12/06 00:51:27;;;;;;;19.97;7.97;;;;;;;-145.18;100.00;46699.47;5031449;28;20278;-74
2022/12/06 00:53:52;;;;;;;18.47;8.30;;;;;;;-145.18;100.00;46707.28;5031508;28;20255;-74
2022/12/06 00:56:18;;;;;;;19.80;8.60;;;;;;;-145.18;100.00;46697.50;5031266;28;20263;-74
2022/12/06 00:58:44;;;;;;;20.97;8.30;;;;;;;-145.18;100.00;46699.47;5031058;28;20045;-74
2022/12/06 01:01:16;;;;;;;22.27;7.83;;;;;;;-145.18;100.00;46691.66;5030463;28;20029;-74
2022/12/06 01:03:43;;;;;;;21.83;7.90;;;;;;;-145.18;100.00;46703.38;5031369;28;20076;-74
2022/12/06 01:06:13;;;;;;;17.23;8.43;;;;;;;-145.18;100.00;46687.75;5030849;28;20382;-74
2022/12/06 01:08:40;;;;;;;24.30;8.40;;;;;;;-145.18;100.00;46701.41;5031164;28;20337;-74
2022/12/06 01:11:06;;;;;;;23.73;8.93;;;;;;;-145.18;100.00;46705.31;5030592;28;20283;-74
2022/12/06 01:13:32;;;;;;;19.53;8.07;;;;;;;-145.18;100.00;46707.28;5031396;28;20341;-74
2022/12/06 01:16:05;;;;;;;22.00;8.67;;;;;;;-145.18;100.00;46699.47;5031051;28;20037;-74
2022/12/06 01:18:30;;;;;;;19.20;8.10;;;;;;;-145.18;100.00;46709.22;5030930;28;20301;-74
2022/12/06 01:20:56;;;;;;;18.80;8.40;;;;;;;-145.18;100.00;46699.47;5030694;28;20299;-74
2022/12/06 01:23:21;;;;;;;22.67;7.20;;;;;;;-145.18;100.00;46703.38;5030771;28;20379;-74
2022/12/06 01:25:50;;;;;;;23.17;7.90;;;;;;;-145.18;100.00;46701.41;5030869;28;20045;-74
2022/12/06 01:28:16;;;;;;;17.10;8.77;;;;;;;-145.18;100.00;46705.31;5013130;28;20140;-74
2022/12/06 01:30:42;;;;;;;19.27;8.30;;;;;;;-145.18;100.00;46713.13;5030359;28;20377;-74
2022/12/06 01:33:07;;;;;;;18.77;6.77;;;;;;;-145.18;100.00;46697.50;5030688;28;20482;-74
2022/12/06 01:35:32;;;;;;;27.33;9.13;;;;;;;-145.18;100.00;46697.50;4996935;28;20469;-74
2022/12/06 01:37:58;;;;;;;16.60;8.63;;;;;;;-145.18;100.00;46695.56;5030493;28;20033;-74
2022/12/06 01:40:23;;;;;;;18.77;8.03;;;;;;;-145.18;100.00;46703.38;5030328;28;20088;-74
2022/12/06 01:42:49;;;;;;;17.90;7.77;;;;;;;-145.18;100.00;46705.31;5030446;28;20047;-74
2022/12/06 01:45:14;;;;;;;21.83;6.97;;;;;;;-145.18;100.00;46707.28;5030764;28;20033;-74
2022/12/06 01:47:42;;;;;;;22.00;8.13;;;;;;;-145.18;100.00;46695.56;5030511;28;20061;-74
2022/12/06 01:50:11;;;;;;;22.10;8.13;;;;;;;-145.18;100.00;46699.47;5013140;28;20029;-74
2022/12/06 01:52:59;;;;;;;21.17;7.90;;;;;;;-145.18;100.00;46699.47;5030248;28;20290;-74
2022/12/06 01:55:28;;;;;;;14.90;7.63;;;;;;;-145.18;100.00;46711.19;5030449;28;20278;-74
2022/12/06 01:57:59;;;;;;;22.87;7.70;;;;;;;-145.18;100.00;46703.38;5012382;28;20350;-74
2022/12/06 02:00:25;;;;;;;19.37;6.30;;;;;;;-145.18;100.00;46701.41;5066484;23;20499;-74
2022/12/06 02:02:51;;;;;;;20.57;6.87;;;;;;;-145.18;100.00;46707.28;5028676;28;20368;-74
2022/12/06 02:05:17;;;;;;;26.33;7.10;;;;;;;-145.18;100.00;46711.19;5030393;28;20034;-74
2022/12/06 02:07:43;;;;;;;23.93;8.00;;;;;;;-145.18;100.00;46707.28;5029859;28;20275;-74
2022/12/06 02:10:10;;;;;;;20.67;6.63;;;;;;;-145.18;100.00;46691.66;5030486;28;20026;-74
2022/12/06 02:12:35;;;;;;;17.73;7.43;;;;;;;-145.18;100.00;46709.22;5029949;28;20650;-74
2022/12/06 02:15:01;;;;;;;25.20;7.73;;;;;;;-145.18;100.00;46695.56;5029917;28;20311;-74
2022/12/06 02:17:26;;;;;;;27.77;7.80;;;;;;;-145.18;100.00;46717.03;5030129;28;20114;-74
2022/12/06 02:20:03;;;;;;;14.17;6.47;;;;;;;-145.18;100.00;46705.31;5030294;28;20033;-74
2022/12/06 02:23:10;;;;;;;17.90;7.13;;;;;;;-145.18;100.00;46695.56;5029689;28;20524;-74
2022/12/06 02:26:14;;;;;;;24.67;7.07;;;;;;;-145.18;100.00;46705.31;4986780;28;20273;-74
2022/12/06 02:29:07;;;;;;;26.33;7.83;;;;;;;-145.18;100.00;46705.31;5049870;28;20166;-74
2022/12/06 02:31:40;;;;;;;26.90;7.57;;;;;;;-145.18;100.00;46703.38;5049700;28;20841;-74
2022/12/06 02:34:13;;;;;;;19.60;7.17;;;;;;;-145.18;100.00;46709.22;5049922;28;20266;-74
2022/12/06 02:36:56;;;;;;;15.30;6.50;;;;;;;-145.18;100.00;46713.13;5049565;28;20337;-74
2022/12/06 02:39:41;;;;;;;17.97;7.07;;;;;;;-145.18;100.00;46701.41;5050141;28;20284;-73
2022/12/06 02:42:18;;;;;;;16.07;7.03;;;;;;;-145.18;100.00;46701.41;5049689;28;20298;-73
2022/12/06 02:44:49;;;;;;;19.97;7.17;;;;;;;-145.18;100.00;46703.38;5049744;28;20253;-73
2022/12/06 02:47:18;;;;;;;12.83;6.17;;;;;;;-145.18;100.00;46695.56;5049827;28;20274;-73
2022/12/06 02:49:48;;;;;;;19.77;6.60;;;;;;;-145.18;100.00;46703.38;5049369;28;20269;-73
2022/12/06 02:52:15;;;;;;;17.07;6.63;;;;;;;-145.18;100.00;46715.09;5049517;28;20372;-73
2022/12/06 02:54:44;;;;;;;27.43;7.17;;;;;;;-145.18;100.00;46693.59;5049536;28;20786;-73
2022/12/06 02:57:09;;;;;;;14.67;7.23;;;;;;;-145.18;100.00;46717.03;5049597;28;20272;-74
2022/12/06 02:59:35;;;;;;;20.00;7.50;;;;;;;-145.18;100.00;46709.22;5049708;28;20274;-74
2022/12/06 03:02:03;;;;;;;18.60;7.63;;;;;;;-145.18;100.00;46699.47;5253700;23;21193;-75
2022/12/06 03:04:45;;;;;;;20.37;7.43;;;;;;;-145.18;100.00;46713.13;5027204;28;20557;-75
2022/12/06 03:07:37;;;;;;;19.53;7.97;;;;;;;-145.18;100.00;46701.41;5026745;28;20255;-75
2022/12/06 03:10:02;;;;;;;16.23;7.77;;;;;;;-145.18;100.00;46705.31;5029223;28;20251;-75
2022/12/06 03:12:42;;;;;;;19.80;7.43;;;;;;;-145.18;100.00;46711.19;5029194;28;20810;-75
2022/12/06 03:15:32;;;;;;;25.03;8.33;;;;;;;-145.18;100.00;46703.38;5029339;28;20029;-75
2022/12/06 03:18:09;;;;;;;13.43;6.50;;;;;;;-145.18;100.00;46711.19;5027920;28;20282;-75
2022/12/06 03:20:48;;;;;;;12.20;6.47;;;;;;;-145.18;100.00;46705.31;5029577;28;20275;-75
2022/12/06 03:23:17;;;;;;;19.53;6.67;;;;;;;-145.18;100.00;46707.28;5029123;28;20342;-75
2022/12/06 03:25:45;;;;;;;20.60;6.80;;;;;;;-145.18;100.00;46711.19;5032470;28;20362;-75
2022/12/06 03:28:14;;;;;;;19.73;6.50;;;;;;;-145.18;100.00;46713.13;5032885;28;20351;-75
2022/12/06 03:30:44;;;;;;;25.07;6.67;;;;;;;-145.18;100.00;46703.38;5033062;28;20373;-75
2022/12/06 03:33:12;;;;;;;20.10;7.37;;;;;;;-145.18;100.00;46699.47;5024546;28;20282;-75
2022/12/06 03:35:39;;;;;;;23.97;7.47;;;;;;;-145.18;100.00;46709.22;5032697;28;20267;-74
2022/12/06 03:38:09;;;;;;;18.97;6.67;;;;;;;-145.18;100.00;46697.50;5032794;28;20284;-74
2022/12/06 03:40:37;;;;;;;20.33;7.43;;;;;;;-145.18;100.00;46709.22;5032818;28;20293;-74
2022/12/06 03:43:04;;;;;;;15.93;7.10;;;;;;;-145.18;100.00;46703.38;5014650;28;20270;-74
2022/12/06 03:45:43;;;;;;;16.00;6.97;;;;;;;-145.18;100.00;46697.50;5032994;28;20306;-75
2022/12/06 03:48:31;;;;;;;18.20;7.57;;;;;;;-145.18;100.00;46695.56;5014771;28;20349;-74
2022/12/06 03:51:08;;;;;;;14.77;7.40;;;;;;;-145.18;100.00;46703.38;5032040;28;20267;-74
2022/12/06 03:53:34;;;;;;;19.63;6.73;;;;;;;-145.18;100.00;46711.19;5032682;28;20733;-74
2022/12/06 03:55:59;;;;;;;14.80;6.17;;;;;;;-145.18;100.00;46691.66;4998545;28;20282;-74
2022/12/06 03:58:25;;;;;;;13.87;6.73;;;;;;;-145.18;100.00;46691.66;5014621;28;20073;-75
2022/12/06 04:00:51;;;;;;;18.80;7.00;;;;;;;-145.18;100.00;46697.50;5032833;28;20034;-75
2022/12/06 04:03:16;;;;;;;16.13;7.30;;;;;;;-145.18;100.00;46705.31;5031905;28;20049;-74
2022/12/06 04:05:41;;;;;;;14.20;6.10;;;;;;;-145.18;100.00;46707.28;5032650;28;20037;-74
2022/12/06 04:08:07;;;;;;;20.40;7.37;;;;;;;-145.18;100.00;46697.50;5031979;28;20094;-74
2022/12/06 04:10:32;;;;;;;14.43;7.37;;;;;;;-145.18;100.00;46699.47;5032351;28;20052;-74
2022/12/06 04:12:59;;;;;;;20.43;7.83;;;;;;;-145.18;100.00;46703.38;5032031;28;20522;-74
2022/12/06 04:15:25;;;;;;;24.03;7.80;;;;;;;-145.18;100.00;46699.47;5032423;28;20045;-74
2022/12/06 04:23:27;;;;;;;16.53;7.10;;;;;;;-145.18;100.00;46701.41;5032131;28;20266;-74
2022/12/06 04:25:53;;;;;;;20.67;8.00;;;;;;;-145.18;100.00;46707.28;5032161;28;20332;-74
2022/12/06 04:39:14;;;;;;;11.97;6.30;;;;;;;-145.18;100.00;46697.50;5031499;28;20290;-74
2022/12/06 04:44:23;;;;;;;12.33;6.60;;;;;;;-145.18;100.00;46707.28;5031896;28;20091;-74
2022/12/06 04:46:49;;;;;;;17.90;6.03;;;;;;;-145.18;100.00;46703.38;5031882;28;20274;-74
2022/12/06 04:49:14;;;;;;;14.97;6.53;;;;;;;-145.18;100.00;46709.22;5031273;28;20034;-75
2022/12/06 04:51:39;;;;;;;15.77;6.27;;;;;;;-145.18;100.00;46701.41;5031911;28;20110;-75
2022/12/06 04:54:06;;;;;;;18.73;7.70;;;;;;;-145.18;100.00;46709.22;5031312;28;20091;-75
2022/12/06 04:56:31;;;;;;;16.73;6.83;;;;;;;-145.18;100.00;46703.38;5031571;28;20075;-75
2022/12/06 04:58:57;;;;;;;11.63;5.87;;;;;;;-145.18;100.00;46699.47;5031088;28;20703;-74
2022/12/06 05:01:22;;;;;;;15.30;6.93;;;;;;;-145.18;100.00;46707.28;5031391;28;20045;-74
2022/12/06 05:03:47;;;;;;;13.73;6.43;;;;;;;-145.18;100.00;46697.50;5031084;28;20127;-74
2022/12/06 05:06:13;;;;;;;13.87;6.17;;;;;;;-145.18;100.00;46711.19;5031302;28;20393;-74
2022/12/06 05:08:38;;;;;;;16.23;7.23;;;;;;;-145.18;100.00;46713.13;4995229;28;20037;-74
2022/12/06 05:11:04;;;;;;;19.13;5.60;;;;;;;-145.18;100.00;46699.47;5003822;28;20386;-74
2022/12/06 05:13:29;;;;;;;11.77;5.23;;;;;;;-145.18;100.00;46711.19;5008529;28;20045;-74
2022/12/06 05:16:03;;;;;;;15.23;5.27;;;;;;;-145.18;100.00;46695.56;5007977;28;20448;-74
2022/12/06 05:18:29;;;;;;;16.37;4.73;;;;;;;-145.18;100.00;46713.13;5011566;28;20583;-74
2022/12/06 05:21:06;;;;;;;11.23;5.50;;;;;;;-145.18;100.00;46707.28;4993695;28;20279;-74
2022/12/06 05:23:32;;;;;;;12.03;5.70;;;;;;;-145.18;100.00;46705.31;5011328;28;20049;-74
2022/12/06 05:26:03;;;;;;;15.83;5.37;;;;;;;-145.18;100.00;46699.47;5011572;28;20835;-74
2022/12/06 05:28:29;;;;;;;15.70;5.50;;;;;;;-145.18;100.00;46711.19;4996912;28;20288;-74
2022/12/06 05:30:55;;;;;;;12.77;5.00;;;;;;;-145.18;100.00;46711.19;4991507;28;20359;-74
2022/12/06 05:33:23;;;;;;;15.80;5.07;;;;;;;-145.18;100.00;46715.09;4991515;28;20312;-75
2022/12/06 05:35:49;;;;;;;11.90;5.30;;;;;;;-145.18;100.00;46711.19;4991464;28;20359;-73
2022/12/06 05:38:14;;;;;;;12.67;4.73;;;;;;;-145.18;100.00;46705.31;4991896;28;20703;-73
2022/12/06 05:40:42;;;;;;;14.80;5.07;;;;;;;-145.18;100.00;46705.31;4991693;28;20596;-73
2022/12/06 05:43:07;;;;;;;12.67;5.10;;;;;;;-145.18;100.00;46711.19;4991641;28;20096;-73
2022/12/06 05:45:33;;;;;;;12.83;4.73;;;;;;;-145.18;100.00;46717.03;4991836;28;20279;-73
2022/12/06 05:47:58;;;;;;;22.27;6.37;;;;;;;-145.18;100.00;46711.19;4990986;28;20042;-73
2022/12/06 05:50:24;;;;;;;12.97;5.70;;;;;;;-145.18;100.00;46699.47;4991456;28;20125;-74
2022/12/06 05:52:56;;;;;;;13.43;6.03;;;;;;;-145.18;100.00;46699.47;4974015;28;20084;-73
2022/12/06 05:55:22;;;;;;;16.30;6.50;;;;;;;-145.18;100.00;46709.22;4991962;28;20149;-73
2022/12/06 05:57:48;;;;;;;15.50;5.73;;;;;;;-145.18;100.00;46711.19;4992007;28;20985;-73
2022/12/06 06:00:14;;;;;;;18.67;5.60;;;;;;;-145.18;100.00;46707.28;4991280;28;20121;-73
2022/12/06 06:02:40;;;;;;;18.83;6.13;;;;;;;-145.18;100.00;46713.13;4994916;28;20065;-73
2022/12/06 06:05:06;;;;;;;17.27;5.67;;;;;;;-145.18;100.00;46703.38;5005083;28;20272;-73
2022/12/06 06:07:32;;;;;;;10.77;5.87;;;;;;;-145.18;100.00;46713.13;5011049;28;20041;-74
2022/12/06 06:09:57;;;;;;;17.30;6.37;;;;;;;-145.18;100.00;46701.41;5005185;28;20363;-74
2022/12/06 06:12:22;;;;;;;10.37;4.80;;;;;;;-145.18;100.00;46697.50;4991413;28;20042;-74
2022/12/06 06:14:48;;;;;;;11.03;5.10;;;;;;;-145.18;100.00;46713.13;4973943;28;20058;-74
2022/12/06 06:17:13;;;;;;;18.10;6.30;;;;;;;-145.18;100.00;46689.69;4992763;28;20221;-73
2022/12/06 06:19:39;;;;;;;14.03;6.33;;;;;;;-145.18;100.00;46705.31;4990773;28;20064;-73
2022/12/06 06:22:04;;;;;;;10.80;5.43;;;;;;;-145.18;100.00;46693.59;4990954;28;20070;-73
2022/12/06 06:24:37;;;;;;;15.27;5.50;;;;;;;-145.18;100.00;46695.56;4973412;28;20065;-73
2022/12/06 06:27:04;;;;;;;13.40;5.47;;;;;;;-145.18;100.00;46695.56;4990757;28;20388;-73
2022/12/06 06:29:30;;;;;;;13.63;5.13;;;;;;;-145.18;100.00;46703.38;4973203;28;20292;-73
2022/12/06 06:31:55;;;;;;;12.13;4.83;;;;;;;-145.18;100.00;46713.13;4990761;28;20296;-74
2022/12/06 06:34:21;;;;;;;11.83;5.33;;;;;;;-145.18;100.00;46703.38;4973114;28;20054;-73
2022/12/06 06:36:46;;;;;;;15.53;5.67;;;;;;;-145.18;100.00;46697.50;4991023;28;20034;-73
2022/12/06 06:39:12;;;;;;;12.30;5.07;;;;;;;-145.18;100.00;46699.47;4990506;28;20039;-73
2022/12/06 06:41:37;;;;;;;11.23;4.67;;;;;;;-145.18;100.00;46705.31;4973219;28;20085;-73
2022/12/06 06:44:02;;;;;;;17.90;5.80;;;;;;;-145.18;100.00;46701.41;4990556;28;20038;-73
2022/12/06 06:46:28;;;;;;;12.07;5.37;;;;;;;-145.18;100.00;46703.38;4990907;28;20084;-73
2022/12/06 06:48:53;;;;;;;12.33;5.00;;;;;;;-145.18;100.00;46703.38;4956957;28;20026;-73
2022/12/06 06:51:19;;;;;;;14.17;4.93;;;;;;;-145.18;100.00;46711.19;4990647;28;20121;-73
2022/12/06 06:53:44;;;;;;;11.30;4.80;;;;;;;-145.18;100.00;46699.47;4990352;28;20153;-73
2022/12/06 06:56:10;;;;;;;12.47;5.10;;;;;;;-145.18;100.00;46709.22;4992210;28;20061;-73
2022/12/06 06:58:35;;;;;;;12.03;4.80;;;;;;;-145.18;100.00;46703.38;4996666;28;20061;-73
2022/12/06 07:01:04;;;;;;;18.10;5.97;;;;;;;-145.18;100.00;46713.13;5002965;28;20544;-74
2022/12/06 07:03:30;;;;;;;12.07;5.00;;;;;;;-145.18;100.00;46715.09;5003039;28;20066;-74
2022/12/06 07:06:09;;;;;;;13.13;5.23;;;;;;;-145.18;100.00;46699.47;5001487;28;20819;-74
2022/12/06 07:08:36;;;;;;;13.57;5.10;;;;;;;-145.18;100.00;46713.13;5001324;28;20788;-74
2022/12/06 07:11:02;;;;;;;10.67;4.07;;;;;;;-145.18;100.00;46713.13;5002780;28;20271;-74
2022/12/06 07:13:29;;;;;;;11.73;5.10;;;;;;;-145.18;100.00;46713.13;4993736;28;20278;-74
2022/12/06 07:15:55;;;;;;;10.80;4.30;;;;;;;-145.18;100.00;46715.09;4976762;28;20268;-74
2022/12/06 07:18:21;;;;;;;11.37;5.47;;;;;;;-145.18;100.00;46711.19;4993863;28;20310;-74
2022/12/06 07:20:47;;;;;;;9.40;5.10;;;;;;;-145.18;100.00;46701.41;4994110;28;20267;-74
2022/12/06 07:23:13;;;;;;;11.47;5.10;;;;;;;-145.18;100.00;46709.22;4993433;28;20141;-74
2022/12/06 07:25:39;;;;;;;9.13;4.73;;;;;;;-145.18;100.00;46711.19;4983179;28;20370;-74
2022/12/06 07:28:04;;;;;;;14.43;5.67;;;;;;;-145.18;100.00;46709.22;5013020;28;20062;-74
2022/12/06 07:30:32;;;;;;;14.53;5.40;;;;;;;-145.18;100.00;46717.03;4996533;28;20050;-74
2022/12/06 07:32:57;;;;;;;10.40;5.30;;;;;;;-145.18;100.00;46705.31;4993362;28;20034;-74
2022/12/06 07:35:23;;;;;;;12.23;5.27;;;;;;;-145.18;100.00;46709.22;4993549;28;20363;-74
2022/12/06 07:37:49;;;;;;;14.10;5.27;;;;;;;-145.18;100.00;46715.09;4993574;28;20245;-74
2022/12/06 07:40:15;;;;;;;10.53;4.87;;;;;;;-145.18;100.00;46703.38;4993384;28;20835;-73
2022/12/06 07:45:25;;;;;;;12.40;6.40;;;;;;;-145.18;100.00;46707.28;4993879;28;20468;-74
2022/12/06 07:47:50;;;;;;;11.97;5.73;;;;;;;-145.18;100.00;46713.13;4993198;28;20320;-74
2022/12/06 07:50:18;;;;;;;17.83;6.30;;;;;;;-145.18;100.00;46713.13;4959385;28;20034;-73
2022/12/06 07:52:45;;;;;;;13.53;5.40;;;;;;;-145.18;100.00;46705.31;4993327;28;20509;-74
2022/12/06 07:55:11;;;;;;;14.90;6.00;;;;;;;-145.18;100.00;46715.09;4985252;28;20280;-73
2022/12/06 07:57:37;;;;;;;13.60;5.63;;;;;;;-145.18;100.00;46713.13;4993377;28;20418;-74
2022/12/06 08:00:06;;;;;;;11.30;5.63;;;;;;;-145.18;100.00;46717.03;4993038;28;20347;-73
2022/12/06 08:02:31;;;;;;;12.43;6.23;;;;;;;-145.18;100.00;46709.22;4993101;28;20058;-74
2022/12/06 08:04:57;;;;;;;12.50;6.90;;;;;;;-145.18;100.00;46705.31;4993157;28;20329;-74
2022/12/06 08:07:23;;;;;;;11.83;5.50;;;;;;;-145.18;100.00;46711.19;4976154;28;20038;-73
2022/12/06 08:09:50;;;;;;;12.90;5.40;;;;;;;-145.18;100.00;46713.13;4992742;28;20038;-73
2022/12/06 08:12:15;;;;;;;9.17;5.53;;;;;;;-145.18;100.00;46711.19;4992571;28;20296;-73
2022/12/06 08:14:40;;;;;;;12.07;5.40;;;;;;;-145.18;100.00;46713.13;4992993;28;20633;-73
2022/12/06 08:17:06;;;;;;;10.53;5.53;;;;;;;-145.18;100.00;46713.13;4993096;28;20046;-73
2022/12/06 08:19:31;;;;;;;11.70;5.30;;;;;;;-145.18;100.00;46709.22;4992319;28;20495;-73
2022/12/06 08:21:57;;;;;;;10.73;5.07;;;;;;;-145.18;100.00;46711.19;4975606;28;20510;-73
2022/12/06 08:24:22;;;;;;;10.80;4.90;;;;;;;-145.18;100.00;46707.28;4992688;28;20034;-73
2022/12/06 08:26:48;;;;;;;15.57;6.73;;;;;;;-145.18;100.00;46711.19;4992638;28;20046;-73
2022/12/06 08:29:14;;;;;;;14.80;6.63;;;;;;;-145.18;100.00;46709.22;4992343;28;20039;-73
2022/12/06 08:31:40;;;;;;;11.03;5.27;;;;;;;-145.18;100.00;46711.19;4992673;28;20154;-73
2022/12/06 08:34:05;;;;;;;13.77;5.60;;;;;;;-145.18;100.00;46705.31;4992584;28;20034;-73
2022/12/06 08:36:30;;;;;;;8.53;5.60;;;;;;;-145.18;100.00;46705.31;4992749;28;20399;-74
2022/12/06 08:38:58;;;;;;;11.37;5.97;;;;;;;-145.18;100.00;46707.28;4992003;28;20038;-73
2022/12/06 08:44:11;;;;;;;14.00;6.00;;;;;;;-145.18;100.00;46705.31;4992456;28;20262;-73
2022/12/06 08:46:38;;;;;;;12.27;5.57;;;;;;;-145.18;100.00;46703.38;4992356;28;20339;-73
2022/12/06 08:49:03;;;;;;;10.77;4.90;;;;;;;-145.18;100.00;46697.50;4992233;28;20274;-73
2022/12/06 08:51:29;;;;;;;10.93;5.77;;;;;;;-145.18;100.00;46703.38;4992098;28;20296;-73
2022/12/06 08:53:56;;;;;;;9.70;5.07;;;;;;;-145.18;100.00;46697.50;4991973;28;20038;-74
2022/12/06 08:56:22;;;;;;;12.07;5.53;;;;;;;-145.18;100.00;46697.50;4992170;28;20351;-73
2022/12/06 08:58:48;;;;;;;12.60;5.17;;;;;;;-145.18;100.00;46697.50;4992198;28;20299;-74
2022/12/06 09:01:17;;;;;;;16.57;5.40;;;;;;;-145.18;100.00;46697.50;4973959;28;20315;-73
2022/12/06 09:03:42;;;;;;;10.77;5.00;;;;;;;-145.18;100.00;46695.56;4991788;28;20052;-74
2022/12/06 09:06:08;;;;;;;10.57;5.00;;;;;;;-145.18;100.00;46699.47;4991880;28;20517;-74
2022/12/06 09:08:35;;;;;;;15.57;5.47;;;;;;;-145.18;100.00;46693.59;4991723;28;20093;-74
2022/12/06 09:11:00;;;;;;;15.53;4.80;;;;;;;-145.18;100.00;46693.59;4991574;28;20286;-74
2022/12/06 09:13:26;;;;;;;11.03;5.20;;;;;;;-145.18;100.00;46695.56;4991511;28;20268;-74
2022/12/06 09:15:51;;;;;;;10.93;4.67;;;;;;;-145.18;100.00;46693.59;4992041;28;20038;-74
2022/12/06 09:18:16;;;;;;;22.37;5.00;;;;;;;-145.18;100.00;46689.69;4991571;28;20070;-74
2022/12/06 09:20:42;;;;;;;9.50;4.83;;;;;;;-145.18;100.00;46693.59;4991760;28;20054;-74
2022/12/06 09:23:07;;;;;;;15.10;6.00;;;;;;;-145.18;100.00;46697.50;4990611;28;20101;-74
2022/12/06 09:25:33;;;;;;;12.53;4.57;;;;;;;-145.18;100.00;46691.66;4991275;28;20038;-74
2022/12/06 09:27:59;;;;;;;10.93;4.63;;;;;;;-145.18;100.00;46695.56;4991485;28;20053;-74
2022/12/06 09:30:25;;;;;;;12.10;5.73;;;;;;;-145.18;100.00;46691.66;4991578;28;20514;-74
2022/12/06 09:32:52;;;;;;;11.97;5.70;;;;;;;-145.18;100.00;46695.56;4991412;28;20382;-74
2022/12/06 09:35:18;;;;;;;11.73;5.23;;;;;;;-145.18;100.00;46695.56;4990755;28;20322;-74
2022/12/06 09:37:44;;;;;;;12.70;5.30;;;;;;;-145.18;100.00;46691.66;4991585;28;20276;-74
2022/12/06 09:40:30;;;;;;;12.57;5.00;;;;;;;-145.18;100.00;46699.47;4991351;28;20272;-74
2022/12/06 09:43:29;;;;;;;13.57;6.33;;;;;;;-145.18;100.00;46693.59;4999860;28;20499;-74
2022/12/06 09:46:09;;;;;;;9.33;4.57;;;;;;;-145.18;100.00;46701.41;4996157;28;20351;-75
2022/12/06 09:48:54;;;;;;;9.87;4.40;;;;;;;-145.18;100.00;46695.56;5003499;28;20750;-75
2022/12/06 09:51:31;;;;;;;5.40;3.53;;;;;;;-145.18;100.00;46699.47;5010669;28;20322;-75
2022/12/06 09:54:39;;;;;;;12.57;3.93;;;;;;;-145.18;100.00;46697.50;5008966;28;20276;-74
2022/12/06 09:57:04;;;;;;;5.87;3.67;;;;;;;-145.18;100.00;46697.50;5010624;28;20263;-75
2022/12/06 09:59:55;;;;;;;8.37;2.90;;;;;;;-145.18;100.00;46699.47;5010146;28;20271;-75
2022/12/06 10:02:45;;;;;;;9.70;3.20;;;;;;;-145.18;100.00;46705.31;4992444;28;20030;-75
2022/12/06 10:05:49;;;;;;;8.27;3.03;;;;;;;-145.18;100.00;46703.38;5010148;28;20351;-75
2022/12/06 10:08:28;;;;;;;5.93;2.60;;;;;;;-145.18;100.00;46699.47;5009652;28;20294;-75
2022/12/06 10:11:23;;;;;;;5.97;2.60;;;;;;;-145.18;100.00;46711.19;5010242;28;20299;-75
2022/12/06 10:14:23;;;;;;;9.53;2.93;;;;;;;-145.18;100.00;46703.38;5010239;28;20264;-75
2022/12/06 10:17:04;;;;;;;8.00;2.40;;;;;;;-145.18;100.00;46711.19;5009918;28;20275;-75
2022/12/06 10:19:32;;;;;;;5.07;2.20;;;;;;;-145.18;100.00;46709.22;5009740;28;20279;-75
2022/12/06 10:22:35;;;;;;;7.07;2.37;;;;;;;-145.18;100.00;46709.22;5008455;28;20282;-75
2022/12/06 10:25:29;;;;;;;6.97;2.70;;;;;;;-145.18;100.00;46695.56;4969104;28;20367;-75
2022/12/06 10:27:57;;;;;;;4.17;2.30;;;;;;;-145.18;100.00;46683.84;5010226;28;20321;-75
2022/12/06 10:30:22;;;;;;;5.50;2.17;;;;;;;-145.18;100.00;46670.16;5009483;28;20830;-75
2022/12/06 10:33:26;;;;;;;5.50;2.10;;;;;;;-145.18;100.00;46635.00;5008369;28;20539;-75
2022/12/06 10:36:04;;;;;;;6.20;1.90;;;;;;;-145.18;100.00;46623.28;4966225;28;20046;-75
2022/12/06 10:38:59;;;;;;;5.93;2.17;;;;;;;-145.18;100.00;46601.78;4997017;28;21091;-75
2022/12/06 10:41:32;;;;;;;6.87;2.10;;;;;;;-145.18;100.00;46599.84;4997176;28;20624;-75
2022/12/06 10:44:08;;;;;;;5.43;2.60;;;;;;;-145.18;100.00;46595.94;5007598;28;20628;-75
2022/12/06 10:47:03;;;;;;;7.37;2.97;;;;;;;-145.18;100.00;46592.03;5016354;28;20263;-75
2022/12/06 10:49:47;;;;;;;6.93;3.00;;;;;;;-145.18;100.00;46593.97;4998697;28;20277;-75
2022/12/06 10:52:25;;;;;;;6.73;2.67;;;;;;;-145.18;100.00;46590.06;5016169;28;20294;-75
2022/12/06 10:55:23;;;;;;;7.03;2.60;;;;;;;-145.18;100.00;46595.94;5016475;28;20744;-75
2022/12/06 10:58:14;;;;;;;7.47;2.30;;;;;;;-145.18;100.00;46595.94;5007208;28;20629;-75
2022/12/06 11:01:05;;;;;;;11.70;2.77;;;;;;;-145.18;100.00;46595.94;5015702;28;20413;-75
2022/12/06 11:03:40;;;;;;;5.83;2.17;;;;;;;-145.18;100.00;46597.88;5015619;28;20838;-75
2022/12/06 11:06:14;;;;;;;5.72;2.35;;;;;;;-145.18;100.00;46599.84;5016227;28;20267;-75
2022/12/06 11:08:48;;;;;;;13.33;3.30;;;;;;;-145.18;100.00;46603.75;4998756;28;20034;-74
2022/12/06 11:11:18;;;;;;;14.47;2.77;;;;;;;-145.18;100.00;46623.28;4991330;28;20279;-74
2022/12/06 11:13:49;;;;;;;6.73;2.57;;;;;;;-145.18;100.00;46625.22;5009190;28;20704;-75
2022/12/06 11:16:23;;;;;;;7.63;2.40;;;;;;;-145.18;100.00;46636.94;5006051;28;21191;-75
2022/12/06 11:18:49;;;;;;;9.73;2.57;;;;;;;-145.18;100.00;46652.59;4986300;28;20271;-75
2022/12/06 11:22:07;;;;;;;5.97;2.10;;;;;;;-145.18;100.00;46658.44;4996368;28;20291;-75
2022/12/06 11:24:44;;;;;;;8.67;2.43;;;;;;;-145.18;100.00;46654.53;4969594;28;20268;-74
2022/12/06 11:27:20;;;;;;;8.87;2.43;;;;;;;-145.18;100.00;46664.31;4978829;28;20306;-75
2022/12/06 11:29:48;;;;;;;5.70;1.90;;;;;;;-145.18;100.00;46703.38;4995992;28;20300;-74
2022/12/06 11:32:15;;;;;;;9.20;2.80;;;;;;;-145.18;100.00;46713.13;5003010;28;20394;-74
2022/12/06 11:34:50;;;;;;;8.20;2.93;;;;;;;-145.18;100.00;46742.44;4987994;28;20679;-74
2022/12/06 11:37:27;;;;;;;4.10;2.20;;;;;;;-145.18;100.00;46746.34;5004898;28;20260;-74
2022/12/06 11:40:06;;;;;;;9.97;3.00;;;;;;;-145.18;100.00;46767.84;4987059;28;20260;-74
2022/12/06 11:42:31;;;;;;;5.67;2.13;;;;;;;-145.18;100.00;46761.97;5010529;28;20718;-74